createdAt,value
2018-08-31T00:00:09.746Z,11.90
2018-08-31T00:02:49.008Z,11.90
2018-08-31T00:05:52.104Z,11.80
2018-08-31T00:09:13.308Z,11.80
2018-08-31T00:12:00.435Z,12.00
2018-08-31T00:14:29.122Z,11.90
2018-08-31T00:16:59.873Z,11.90
2018-08-31T00:19:28.521Z,11.90
2018-08-31T00:22:02.957Z,11.90
2018-08-31T00:24:43.470Z,11.90
2018-08-31T00:27:24.520Z,11.80
2018-08-31T00:30:05.461Z,11.80
2018-08-31T00:45:35.551Z,11.80
2018-08-31T00:48:04.476Z,11.80
2018-08-31T00:50:33.437Z,11.80
2018-08-31T00:53:02.475Z,11.70
2018-08-31T00:55:31.452Z,11.70
2018-08-31T00:58:00.684Z,11.70
2018-08-31T01:00:29.183Z,11.70
2018-08-31T01:02:57.848Z,11.70
2018-08-31T01:05:26.481Z,11.70
2018-08-31T01:07:55.454Z,11.70
2018-08-31T01:10:24.836Z,11.70
2018-08-31T01:12:54.132Z,11.70
2018-08-31T01:15:22.677Z,11.70
2018-08-31T01:17:51.200Z,11.70
2018-08-31T01:20:20.293Z,11.70
2018-08-31T01:22:49.095Z,11.70
2018-08-31T01:25:17.692Z,11.60
2018-08-31T01:27:46.222Z,11.60
2018-08-31T01:30:15.125Z,11.60
2018-08-31T01:32:43.711Z,11.50
2018-08-31T01:35:12.809Z,11.60
2018-08-31T01:37:46.207Z,11.50
2018-08-31T01:40:14.823Z,11.50
2018-08-31T01:42:43.689Z,11.50
2018-08-31T01:45:12.324Z,11.50
2018-08-31T01:47:43.395Z,11.40
2018-08-31T01:50:12.056Z,11.40
2018-08-31T01:52:40.663Z,11.40
2018-08-31T01:55:09.525Z,11.30
2018-08-31T01:57:38.028Z,11.30
2018-08-31T02:00:07.185Z,11.30
2018-08-31T02:02:35.783Z,11.30
2018-08-31T02:05:04.538Z,11.30
2018-08-31T02:07:33.186Z,11.20
2018-08-31T02:10:02.032Z,11.10
2018-08-31T02:12:31.156Z,11.10
2018-08-31T02:15:00.828Z,11.10
2018-08-31T02:17:29.512Z,11.10
2018-08-31T02:19:58.201Z,11.10
2018-08-31T02:22:26.761Z,11.10
2018-08-31T02:24:56.506Z,11.10
2018-08-31T02:27:25.194Z,11.10
2018-08-31T02:29:53.782Z,11.10
2018-08-31T02:32:22.331Z,11.00
2018-08-31T02:34:50.848Z,11.10
2018-08-31T02:37:19.791Z,11.00
2018-08-31T02:39:48.373Z,11.00
2018-08-31T02:42:16.924Z,11.00
2018-08-31T02:44:45.678Z,11.00
2018-08-31T02:47:14.210Z,10.90
2018-08-31T02:49:48.977Z,10.90
2018-08-31T02:52:17.590Z,10.90
2018-08-31T02:54:49.660Z,10.90
2018-08-31T02:57:18.143Z,10.90
2018-08-31T02:59:47.107Z,10.80
2018-08-31T03:02:15.818Z,10.80
2018-08-31T03:04:44.381Z,10.70
2018-08-31T03:07:13.088Z,10.70
2018-08-31T03:09:41.710Z,10.70
2018-08-31T03:12:10.284Z,10.70
2018-08-31T03:14:38.985Z,10.70
2018-08-31T03:17:09.662Z,10.70
2018-08-31T03:19:38.253Z,10.70
2018-08-31T03:22:07.121Z,10.70
2018-08-31T03:24:35.762Z,10.80
2018-08-31T03:27:04.701Z,10.70
2018-08-31T03:29:33.419Z,10.70
2018-08-31T03:32:02.033Z,10.80
2018-08-31T03:34:30.775Z,10.80
2018-08-31T03:36:59.410Z,10.70
2018-08-31T03:39:27.913Z,10.70
2018-08-31T03:41:56.542Z,10.70
2018-08-31T03:44:25.209Z,10.70
2018-08-31T03:46:53.899Z,10.70
2018-08-31T03:49:22.384Z,10.80
2018-08-31T03:51:53.226Z,10.80
2018-08-31T03:54:21.926Z,10.90
2018-08-31T03:56:50.946Z,10.90
2018-08-31T03:59:19.615Z,10.90
2018-08-31T04:01:48.104Z,10.80
2018-08-31T04:04:16.685Z,10.80
2018-08-31T04:06:45.441Z,10.80
2018-08-31T04:09:14.058Z,10.80
2018-08-31T04:11:46.893Z,10.80
2018-08-31T04:14:15.558Z,10.80
2018-08-31T04:16:44.489Z,10.80
2018-08-31T04:19:15.944Z,10.80
2018-08-31T04:21:45.411Z,10.80
2018-08-31T04:24:15.322Z,10.80
2018-08-31T04:26:44.357Z,10.80
2018-08-31T04:29:13.192Z,10.80
2018-08-31T04:31:43.155Z,10.80
2018-08-31T04:34:12.497Z,10.80
2018-08-31T04:36:42.067Z,10.80
2018-08-31T04:39:12.120Z,10.80
2018-08-31T04:41:41.719Z,10.90
2018-08-31T04:44:10.366Z,10.90
2018-08-31T04:46:39.091Z,10.90
2018-08-31T04:49:08.189Z,10.80
2018-08-31T04:51:36.674Z,10.80
2018-08-31T04:54:05.426Z,10.80
2018-08-31T04:56:34.196Z,10.80
2018-08-31T04:59:05.045Z,10.80
2018-08-31T05:01:33.963Z,10.80
2018-08-31T05:04:02.696Z,10.80
2018-08-31T05:06:35.436Z,10.80
2018-08-31T05:09:05.518Z,10.80
2018-08-31T05:11:34.452Z,10.80
2018-08-31T05:14:03.170Z,10.80
2018-08-31T05:16:32.100Z,10.80
2018-08-31T05:19:00.660Z,10.90
2018-08-31T05:21:29.584Z,10.90
2018-08-31T05:23:58.297Z,10.90
2018-08-31T05:26:27.351Z,10.90
2018-08-31T05:29:04.248Z,11.00
2018-08-31T05:31:33.122Z,11.00
2018-08-31T05:34:06.503Z,11.10
2018-08-31T05:36:34.985Z,11.10
2018-08-31T05:39:08.498Z,11.20
2018-08-31T05:41:37.216Z,11.20
2018-08-31T05:44:05.694Z,11.30
2018-08-31T05:46:34.848Z,11.30
2018-08-31T05:49:03.467Z,11.30
2018-08-31T05:51:32.891Z,11.40
2018-08-31T05:54:01.930Z,11.50
2018-08-31T05:56:30.500Z,11.60
2018-08-31T05:58:59.192Z,11.70
2018-08-31T06:01:27.870Z,11.70
2018-08-31T06:03:56.566Z,11.80
2018-08-31T06:06:25.246Z,11.90
2018-08-31T06:08:53.922Z,12.00
2018-08-31T06:11:22.732Z,12.10
2018-08-31T06:13:51.303Z,12.20
2018-08-31T06:16:20.132Z,12.30
2018-08-31T06:18:48.696Z,12.40
2018-08-31T06:21:19.518Z,12.50
2018-08-31T06:23:48.058Z,12.70
2018-08-31T06:26:16.964Z,12.80
2018-08-31T06:28:46.048Z,12.90
2018-08-31T06:31:14.736Z,13.10
2018-08-31T06:33:43.625Z,13.20
2018-08-31T06:36:14.051Z,13.30
2018-08-31T06:38:42.716Z,13.30
2018-08-31T06:41:11.584Z,13.40
2018-08-31T06:43:40.576Z,13.50
2018-08-31T06:46:09.176Z,13.60
2018-08-31T06:48:40.099Z,13.70
2018-08-31T06:51:08.890Z,13.80
2018-08-31T06:53:38.089Z,13.90
2018-08-31T06:56:06.639Z,14.20
2018-08-31T06:58:35.337Z,14.30
2018-08-31T07:01:03.907Z,14.50
2018-08-31T07:03:32.514Z,14.70
2018-08-31T07:06:01.549Z,15.10
2018-08-31T07:08:30.135Z,15.40
2018-08-31T07:10:58.822Z,15.60
2018-08-31T07:13:27.406Z,16.00
2018-08-31T07:18:10.735Z,17.70
2018-08-31T07:20:39.435Z,19.50
2018-08-31T07:23:08.167Z,20.70
2018-08-31T07:25:37.206Z,20.60
2018-08-31T07:28:05.897Z,21.80
2018-08-31T07:30:34.483Z,22.90
2018-08-31T07:33:03.180Z,23.50
